CZ-0080 weather

Sázava
Central Bohemian Region, Czechia

Public forecast

Using degrees Celsius for public forecast. Weather courtesy of forecast.io.

Closest aviation weather report (METAR) to Sázava

Closest report is Čáslav Air Base, 17.4 nm (32.2 km) E. Retrieved 2019/10/22 12:17 UTC (1 minute ago):

LKCV 221217Z 31005KT 0800 R31/1200U FG VV005 12/12 Q1024 RMK AMB

Closest aviation forecast (TAF) to Sázava

Closest forecast is Čáslav Air Base, 17.4 nm (32.2 km) E. Retrieved 2019/10/22 12:00 UTC (18 minutes ago):

TAF LKCV 221100Z 2212/2312 VRB02KT 0300 FG VV001 TEMPO 2213/2218 2000 BR SCT006 PROB30 TEMPO 2213/2217 CAVOK